Time;durP1;ratioP1;P1;durP2;ratioP2;P2;SDS_P1;SDS_P2;PMS_P1;PMS_P2;Temp;Humidity;BMP_temperature;BMP_pressure;BME280_temperature;BME280_humidity;BME280_pressure;Samples;Min_cycle;Max_cycle;Signal;HPM_P1;HPM_P2
2022/01/30 00:02:18;;;;;;;0.60;0.20;;;1.50;68.90;;;;;;20844841;28;20095;-50
2022/01/30 00:12:33;;;;;;;0.20;0.10;;;1.40;68.90;;;;;;20873941;28;20090;-49
2022/01/30 00:22:45;;;;;;;0.63;0.20;;;1.30;69.00;;;;;;20895130;28;20045;-47
2022/01/30 00:32:47;;;;;;;0.40;0.10;;;1.60;67.30;;;;;;20911720;28;20045;-47
2022/01/30 00:42:51;;;;;;;0.10;0.10;;;2.00;67.90;;;;;;20893637;28;20029;-48
2022/01/30 00:52:55;;;;;;;0.40;0.10;;;2.20;66.90;;;;;;20926058;28;20436;-49
2022/01/30 01:02:57;;;;;;;0.32;0.15;;;2.20;68.80;;;;;;20908432;28;20037;-48
2022/01/30 01:23:26;;;;;;;0.20;0.10;;;2.50;66.90;;;;;;20906398;28;20041;-49
2022/01/30 01:33:46;;;;;;;0.00;0.00;;;3.00;69.70;;;;;;20889807;28;20036;-48
2022/01/30 01:43:49;;;;;;;0.55;0.10;;;3.70;66.00;;;;;;20889870;28;20495;-50
2022/01/30 01:53:58;;;;;;;0.93;0.10;;;3.80;64.90;;;;;;20887918;28;20484;-49
2022/01/30 02:04:01;;;;;;;0.75;0.10;;;3.50;63.90;;;;;;20871277;28;20381;-48
2022/01/30 02:24:16;;;;;;;0.00;0.00;;;3.60;69.80;;;;;;20794928;28;20041;-48
2022/01/30 02:34:23;;;;;;;0.20;0.10;;;4.50;64.70;;;;;;20777410;28;20049;-48
2022/01/30 02:44:50;;;;;;;0.05;0.00;;;4.20;65.80;;;;;;20777159;28;20053;-48
2022/01/30 02:54:52;;;;;;;2.00;0.10;;;4.10;66.90;;;;;;20830911;28;20041;-48
2022/01/30 03:04:55;;;;;;;0.20;0.03;;;4.00;69.40;;;;;;20900010;28;20041;-48
2022/01/30 03:14:59;;;;;;;0.05;0.00;;;3.40;71.30;;;;;;20866584;28;20428;-48
2022/01/30 03:25:03;;;;;;;0.00;0.00;;;2.90;73.60;;;;;;20899231;28;20037;-52
2022/01/30 03:35:35;;;;;;;0.63;0.10;;;2.90;71.50;;;;;;20729120;28;20091;-49
2022/01/30 03:45:38;;;;;;;1.00;0.03;;;3.50;70.60;;;;;;20794720;28;20076;-47
2022/01/30 03:55:41;;;;;;;0.40;0.10;;;4.00;70.30;;;;;;20806055;28;20487;-50
2022/01/30 04:05:48;;;;;;;0.10;0.00;;;3.80;70.20;;;;;;20808595;28;20091;-48
2022/01/30 04:15:51;;;;;;;0.98;0.10;;;3.40;70.70;;;;;;20879810;28;20433;-48
2022/01/30 04:26:13;;;;;;;0.00;0.00;;;3.90;70.60;;;;;;20879763;28;20029;-48
2022/01/30 04:37:01;;;;;;;0.20;0.00;;;4.00;69.50;;;;;;20656504;28;20046;-49
2022/01/30 05:08:12;;;;;;;0.00;0.00;;;3.80;70.40;;;;;;20688958;28;20112;-50
2022/01/30 05:18:23;;;;;;;;;;;3.80;69.70;;;;;;20825769;28;20053;-48
2022/01/30 05:28:49;;;;;;;3.22;0.32;;;4.10;70.10;;;;;;20800911;28;20308;-48
2022/01/30 05:39:13;;;;;;;0.25;0.00;;;4.00;68.40;;;;;;20857858;28;20408;-50
2022/01/30 05:49:44;;;;;;;0.30;0.00;;;6.40;57.30;;;;;;20651232;28;20050;-48
2022/01/30 06:00:00;;;;;;;0.10;0.00;;;8.10;56.60;;;;;;20634318;28;20506;-48
2022/01/30 06:10:22;;;;;;;;;;;8.00;55.30;;;;;;20633338;28;20592;-49
2022/01/30 06:20:24;;;;;;;0.25;0.00;;;6.70;59.00;;;;;;20695567;28;20312;-50
2022/01/30 06:30:57;;;;;;;0.10;0.00;;;6.90;55.80;;;;;;20712609;28;20072;-48
2022/01/30 06:41:17;;;;;;;0.40;0.00;;;6.80;57.00;;;;;;20793927;28;20087;-50
2022/01/30 06:51:52;;;;;;;0.45;0.00;;;6.10;59.10;;;;;;20809736;28;20163;-49
2022/01/30 07:02:13;;;;;;;0.00;0.00;;;5.10;62.10;;;;;;20827475;28;20048;-49
2022/01/30 07:12:41;;;;;;;1.90;0.10;;;4.70;62.70;;;;;;20645813;28;20054;-49
2022/01/30 07:22:44;;;;;;;0.10;0.00;;;5.60;59.80;;;;;;20632714;28;20111;-48
2022/01/30 07:32:46;;;;;;;0.05;0.00;;;6.50;57.30;;;;;;20656698;28;20242;-50
2022/01/30 07:42:49;;;;;;;0.30;0.00;;;6.30;59.40;;;;;;20676590;28;20116;-50
2022/01/30 07:52:52;;;;;;;0.10;0.00;;;5.80;61.10;;;;;;20828032;28;20072;-49
2022/01/30 08:02:55;;;;;;;0.47;0.00;;;6.40;61.70;;;;;;20809907;28;20041;-47
2022/01/30 08:12:57;;;;;;;0.05;0.00;;;8.00;55.70;;;;;;20821348;28;1335330;-49
2022/01/30 08:23:01;;;;;;;1.92;0.10;;;9.20;54.00;;;;;;20912640;28;20040;-51
2022/01/30 08:33:03;;;;;;;0.00;0.00;;;9.60;56.00;;;;;;20907317;28;20091;-48
2022/01/30 08:43:07;;;;;;;0.10;0.00;;;9.90;54.00;;;;;;20862189;28;20033;-49
2022/01/30 08:53:09;;;;;;;1.75;0.32;;;10.30;55.30;;;;;;20909741;28;20037;-48
2022/01/30 09:03:13;;;;;;;0.08;0.00;;;10.60;53.60;;;;;;20908312;28;20462;-51
2022/01/30 09:13:15;;;;;;;0.57;0.00;;;11.00;52.00;;;;;;20908400;28;20099;-51
2022/01/30 09:23:18;;;;;;;1.55;0.00;;;11.30;51.00;;;;;;20906715;28;20037;-52
2022/01/30 09:33:21;;;;;;;0.65;0.00;;;11.60;50.20;;;;;;20905143;28;20033;-51
2022/01/30 09:43:27;;;;;;;0.10;0.00;;;11.90;49.20;;;;;;20873439;28;20163;-48
2022/01/30 09:53:29;;;;;;;0.10;0.00;;;12.30;48.20;;;;;;20904722;28;20362;-50
2022/01/30 10:03:32;;;;;;;0.00;0.00;;;12.30;48.80;;;;;;20887664;28;20082;-51
2022/01/30 10:13:35;;;;;;;0.00;0.00;;;12.40;48.00;;;;;;20903439;28;20110;-50
2022/01/30 10:23:37;;;;;;;0.55;0.05;;;12.60;47.90;;;;;;20902576;28;20392;-48
2022/01/30 10:33:49;;;;;;;0.10;0.00;;;12.80;47.80;;;;;;20809999;28;20041;-48
2022/01/30 10:43:59;;;;;;;1.13;0.17;;;13.00;48.20;;;;;;20769510;28;20092;-48
2022/01/30 10:54:07;;;;;;;1.80;0.00;;;13.30;47.10;;;;;;20727915;28;20478;-48
2022/01/30 11:04:24;;;;;;;0.32;0.00;;;12.60;48.10;;;;;;20710582;28;20042;-54
2022/01/30 11:14:39;;;;;;;0.20;0.10;;;12.60;47.60;;;;;;20781056;28;20405;-51
2022/01/30 11:25:01;;;;;;;0.43;0.10;;;12.80;47.70;;;;;;20899712;28;20036;-54
2022/01/30 11:35:04;;;;;;;0.65;0.10;;;12.70;47.40;;;;;;20897663;28;20477;-49
2022/01/30 11:45:07;;;;;;;0.32;0.08;;;12.90;47.20;;;;;;20882251;28;20378;-51
2022/01/30 11:55:38;;;;;;;0.00;0.00;;;13.10;46.40;;;;;;20881536;28;20041;-50
2022/01/30 12:05:41;;;;;;;1.08;0.05;;;13.10;46.10;;;;;;20867173;28;20530;-48
2022/01/30 12:15:46;;;;;;;0.10;0.10;;;13.20;45.80;;;;;;20896116;28;20045;-49
2022/01/30 12:26:03;;;;;;;0.30;0.10;;;13.30;45.60;;;;;;20912597;28;20029;-50
2022/01/30 12:36:14;;;;;;;0.10;0.10;;;13.30;46.20;;;;;;20911256;28;20091;-48
2022/01/30 12:46:17;;;;;;;2.25;0.13;;;13.40;45.30;;;;;;20907338;28;20080;-48
2022/01/30 12:56:22;;;;;;;0.35;0.05;;;13.30;46.30;;;;;;20909088;28;20041;-48
2022/01/30 13:06:38;;;;;;;0.00;0.00;;;13.60;45.60;;;;;;20910229;28;20033;-50
2022/01/30 13:16:43;;;;;;;0.10;0.00;;;13.50;45.10;;;;;;20890612;28;20052;-51
2022/01/30 13:26:48;;;;;;;0.00;0.00;;;13.20;44.40;;;;;;20907165;28;20045;-51
2022/01/30 13:36:58;;;;;;;0.10;0.05;;;12.70;44.80;;;;;;20906714;28;20091;-49
2022/01/30 13:47:03;;;;;;;0.20;0.10;;;12.40;45.40;;;;;;20904959;28;20570;-49
2022/01/30 13:57:11;;;;;;;0.30;0.10;;;12.10;44.80;;;;;;20904258;28;20033;-51
2022/01/30 14:07:24;;;;;;;0.10;0.00;;;11.90;44.70;;;;;;20903771;28;20037;-49
2022/01/30 14:17:27;;;;;;;2.80;0.03;;;11.60;45.00;;;;;;20929019;28;20125;-49
2022/01/30 14:27:34;;;;;;;1.20;0.10;;;11.50;44.80;;;;;;20983754;28;20048;-55
2022/01/30 14:37:40;;;;;;;0.30;0.10;;;11.50;45.20;;;;;;20966671;28;20059;-50
2022/01/30 14:47:42;;;;;;;1.45;0.00;;;11.40;44.60;;;;;;20909358;28;20099;-50
2022/01/30 14:57:46;;;;;;;0.38;0.08;;;11.30;45.00;;;;;;20900219;28;20102;-49
2022/01/30 15:07:50;;;;;;;0.35;0.10;;;11.20;45.50;;;;;;20899572;28;20045;-49
2022/01/30 15:17:53;;;;;;;0.28;0.00;;;11.00;45.70;;;;;;20898432;28;20052;-49
2022/01/30 15:27:56;;;;;;;0.60;0.10;;;10.70;46.70;;;;;;20898771;28;20037;-49
2022/01/30 15:37:59;;;;;;;0.05;0.00;;;9.80;49.10;;;;;;20898982;28;20110;-49
2022/01/30 15:58:25;;;;;;;0.10;0.00;;;8.20;50.40;;;;;;20897666;28;20091;-48
2022/01/30 16:08:34;;;;;;;0.28;0.10;;;7.80;51.90;;;;;;20913432;28;20480;-50
2022/01/30 16:18:39;;;;;;;0.10;0.00;;;7.30;52.40;;;;;;20879212;28;20049;-50
2022/01/30 16:28:43;;;;;;;0.30;0.00;;;7.20;50.50;;;;;;20912013;28;20036;-48
2022/01/30 16:38:46;;;;;;;0.20;0.10;;;7.00;50.80;;;;;;20911277;28;20102;-48
2022/01/30 16:48:48;;;;;;;0.10;0.00;;;7.10;50.30;;;;;;20890599;28;20036;-49
2022/01/30 16:58:52;;;;;;;3.92;0.10;;;6.90;51.00;;;;;;20909277;28;20037;-51
2022/01/30 17:09:01;;;;;;;0.32;0.05;;;6.40;51.00;;;;;;20910308;28;20037;-50
2022/01/30 17:19:04;;;;;;;0.30;0.00;;;6.80;50.50;;;;;;20894296;28;20476;-61
2022/01/30 17:29:06;;;;;;;1.05;0.10;;;6.70;50.30;;;;;;20860389;28;20037;-63
2022/01/30 17:39:09;;;;;;;2.55;0.15;;;6.60;49.20;;;;;;20882086;28;20041;-59
2022/01/30 17:49:11;;;;;;;1.13;0.20;;;6.70;47.90;;;;;;20866008;28;20041;-60
2022/01/30 17:59:15;;;;;;;0.55;0.20;;;6.50;47.80;;;;;;20870056;28;20503;-62
2022/01/30 18:09:17;;;;;;;0.00;0.00;;;6.50;45.20;;;;;;20870278;28;20037;-62
2022/01/30 18:19:20;;;;;;;0.13;0.00;;;6.40;44.90;;;;;;20863761;28;20084;-62
2022/01/30 18:29:23;;;;;;;0.20;0.10;;;6.40;44.50;;;;;;20872130;28;20538;-62
2022/01/30 18:39:53;;;;;;;1.10;0.10;;;6.40;44.80;;;;;;20901234;28;20033;-58
2022/01/30 18:49:56;;;;;;;0.20;0.03;;;5.90;43.80;;;;;;20894532;28;20063;-64
2022/01/30 18:59:58;;;;;;;0.10;0.00;;;6.10;44.10;;;;;;20953557;28;20135;-60
2022/01/30 19:10:03;;;;;;;0.10;0.10;;;6.10;42.70;;;;;;20858951;28;20041;-62
2022/01/30 19:20:07;;;;;;;0.30;0.10;;;6.20;41.70;;;;;;20968600;28;20070;-60
2022/01/30 19:30:09;;;;;;;0.05;0.00;;;6.10;41.90;;;;;;20986231;28;20032;-60
2022/01/30 19:40:12;;;;;;;0.08;0.00;;;5.90;42.20;;;;;;20961455;28;20032;-62
2022/01/30 19:50:15;;;;;;;0.20;0.00;;;5.90;42.40;;;;;;20963376;28;20037;-62
2022/01/30 20:00:20;;;;;;;0.13;0.08;;;5.90;41.10;;;;;;20978988;28;20405;-62
2022/01/30 20:10:25;;;;;;;0.22;0.10;;;5.60;41.10;;;;;;20962554;28;20041;-62
2022/01/30 20:20:28;;;;;;;1.40;0.35;;;5.70;41.80;;;;;;20882221;28;20037;-60
2022/01/30 20:30:32;;;;;;;2.38;0.60;;;5.60;41.10;;;;;;20926896;28;20118;-59
2022/01/30 20:40:37;;;;;;;1.45;0.30;;;5.50;41.20;;;;;;20914535;28;20040;-61
2022/01/30 20:50:40;;;;;;;1.08;0.30;;;5.40;41.20;;;;;;20919734;28;20554;-66
2022/01/30 21:00:42;;;;;;;0.43;0.20;;;5.30;41.60;;;;;;20875354;28;20041;-60
2022/01/30 21:10:46;;;;;;;0.10;0.00;;;5.20;40.90;;;;;;20861513;28;20432;-62
2022/01/30 21:20:49;;;;;;;1.75;0.20;;;4.80;41.60;;;;;;20896676;28;20500;-62
2022/01/30 21:30:52;;;;;;;0.15;0.10;;;5.00;41.80;;;;;;20918403;28;20041;-63
2022/01/30 21:40:55;;;;;;;0.45;0.03;;;5.00;41.20;;;;;;20888410;28;20087;-68
2022/01/30 21:50:57;;;;;;;0.00;0.00;;;4.90;41.90;;;;;;20904984;28;20071;-62
2022/01/30 22:01:00;;;;;;;0.47;0.10;;;4.70;41.20;;;;;;20868258;28;20061;-49
2022/01/30 22:11:04;;;;;;;0.57;0.10;;;5.10;39.50;;;;;;20881685;28;20359;-53
2022/01/30 22:21:07;;;;;;;0.10;0.00;;;5.10;40.20;;;;;;20886232;28;20045;-48
2022/01/30 22:31:09;;;;;;;0.20;0.10;;;4.70;40.10;;;;;;20885614;28;20440;-50
2022/01/30 22:41:12;;;;;;;0.25;0.00;;;4.50;40.10;;;;;;20918129;28;20037;-49
2022/01/30 22:51:14;;;;;;;1.90;0.10;;;4.40;40.20;;;;;;20901086;28;20125;-48
2022/01/30 23:01:18;;;;;;;0.15;0.00;;;4.50;39.60;;;;;;20900414;28;20366;-48
2022/01/30 23:11:21;;;;;;;1.80;0.20;;;4.30;40.00;;;;;;20899263;28;20029;-48
2022/01/30 23:21:26;;;;;;;1.42;0.00;;;4.40;38.30;;;;;;20873506;28;20041;-48
2022/01/30 23:31:28;;;;;;;0.63;0.00;;;4.40;38.30;;;;;;20828292;28;20037;-49
2022/01/30 23:41:34;;;;;;;0.00;0.00;;;4.70;38.10;;;;;;20850080;28;20167;-48
2022/01/30 23:51:36;;;;;;;0.10;0.00;;;5.40;36.50;;;;;;20892137;28;20622;-48
